Aviation Digital Data Service (ADDS)

Output produced by METARs form (2317 UTC 30 July 2014)
found at http://www.aviationweather.gov/adds/metars/
 
KDFW 302050Z 3021/3124 16011KT P6SM SCT060 BKN120 
     FM310500 15010KT P6SM VCSH OVC060 
     FM310800 04007KT P6SM VCTS OVC035CB 
     FM311300 34008KT P6SM BKN025 
     FM311800 34014KT P6SM BKN040